Ace, Texas
Current Conditions -  °F | °C
As of 4:35 PM on Saturday 20 Dec 2014 (Local Time) from K6R3 Reporting Station
Haze Haze  
Wind Chill: 54°   Ceiling: 2200
Heat Index: 54°   Visibility: 4mi
Dew Point: 50°   Wind: 0mph
Humidity: 86%   Direction: NA
Pressure: 30.16"   Gusts: NA
Location:  30.54°N, 94.82°W
Report Text: K6R3 202235Z AUTO 00000KT 4SM BR OVC022 12/10 A3016 RMK AO2 T01200098
Loading
Personal Weather Stations






























Interactive Weather Map New forecast layout! Learn more

10-Day Weather Forecast

Advertisements
Track Severe Weather on mobile